Flight Briefing for CPX431

Departure Arrival
Louis Armstrong New Orleans International Airport (KMSY)
Click to view FAA NOTAMS
Nashville International Airport (KBNA)
Click to view FAA NOTAMS
Departure Time Arrival Time
N/A N/A
Aircraft Distance
B757-200SF 410nm
Departure METAR Arrival METAR
KMSY 152053Z 19010KT 9SM BKN022 BKN027 OVC041 22/18 A2982 RMK AO2 SLP102 60001 T02170183 58023 KBNA 152053Z 01008KT 7SM -RA OVC022 07/02 A2989 RMK AO2 SLP122 P0001 60001 T00670017 55005
Suggested Route
LBY MEI IGB HRTUN CHSNE2


View recent IFR Routes data
Notes



Charts and Procedures

Charts for KMSY
No chart available
Charts for KBNA
No chart available

Ventusky Weather